createdAt,value
2017-02-15T00:00:20.987Z,1029.93
2017-02-15T00:01:34.132Z,1029.91
2017-02-15T00:02:47.205Z,1029.89
2017-02-15T00:04:00.336Z,1029.86
2017-02-15T00:05:13.099Z,1029.86
2017-02-15T00:06:25.868Z,1029.83
2017-02-15T00:07:38.969Z,1029.82
2017-02-15T00:08:52.066Z,1029.78
2017-02-15T00:10:05.180Z,1029.81
2017-02-15T00:11:17.918Z,1029.81
2017-02-15T00:12:31.028Z,1029.83
2017-02-15T00:13:44.143Z,1029.83
2017-02-15T00:14:57.292Z,1029.86
2017-02-15T00:16:10.003Z,1029.82
2017-02-15T00:17:23.067Z,1029.87
2017-02-15T00:18:36.227Z,1029.9
2017-02-15T00:19:49.331Z,1029.92
2017-02-15T00:21:02.480Z,1029.94
2017-02-15T00:22:15.220Z,1029.93
2017-02-15T00:23:28.332Z,1029.96
2017-02-15T00:24:41.383Z,1029.94
2017-02-15T00:25:54.482Z,1029.97
2017-02-15T00:27:07.629Z,1029.96
2017-02-15T00:28:20.328Z,1029.93
2017-02-15T00:29:33.420Z,1029.92
2017-02-15T00:30:46.568Z,1029.95
2017-02-15T00:31:59.681Z,1029.95
2017-02-15T00:33:12.758Z,1029.96
2017-02-15T00:34:25.875Z,1029.94
2017-02-15T00:35:38.941Z,1029.95
2017-02-15T00:36:51.689Z,1029.97
2017-02-15T00:38:04.413Z,1029.99
2017-02-15T00:39:17.558Z,1030.01
2017-02-15T00:40:30.502Z,1029.96
2017-02-15T00:41:43.615Z,1029.95
2017-02-15T00:42:56.672Z,1029.97
2017-02-15T00:44:09.782Z,1029.97
2017-02-15T00:45:22.536Z,1029.94
2017-02-15T00:46:35.609Z,1029.9
2017-02-15T00:47:48.694Z,1029.88
2017-02-15T00:49:01.846Z,1029.92
2017-02-15T00:50:14.997Z,1029.88
2017-02-15T00:51:27.707Z,1029.88
2017-02-15T00:52:40.816Z,1029.88
2017-02-15T00:53:53.909Z,1029.88
2017-02-15T00:55:06.975Z,1029.87
2017-02-15T00:56:20.065Z,1029.83
2017-02-15T00:57:33.144Z,1029.83
2017-02-15T00:58:46.231Z,1029.85
2017-02-15T00:59:59.336Z,1029.86
2017-02-15T01:01:12.413Z,1029.78
2017-02-15T01:02:25.468Z,1029.8
2017-02-15T01:03:38.180Z,1029.75
2017-02-15T01:04:51.231Z,1029.77
2017-02-15T01:06:04.377Z,1029.78
2017-02-15T01:07:17.440Z,1029.78
2017-02-15T01:08:30.164Z,1029.76
2017-02-15T01:09:43.253Z,1029.76
2017-02-15T01:10:56.280Z,1029.74
2017-02-15T01:12:09.402Z,1029.76
2017-02-15T01:13:22.466Z,1029.81
2017-02-15T01:14:35.559Z,1029.78
2017-02-15T01:15:48.663Z,1029.77
2017-02-15T01:17:01.782Z,1029.75
2017-02-15T01:18:14.850Z,1029.77
2017-02-15T01:19:27.601Z,1029.72
2017-02-15T01:20:40.714Z,1029.77
2017-02-15T01:21:53.812Z,1029.75
2017-02-15T01:23:06.924Z,1029.72
2017-02-15T01:24:20.009Z,1029.71
2017-02-15T01:25:33.137Z,1029.73
2017-02-15T01:26:46.319Z,1029.76
2017-02-15T01:27:59.447Z,1029.72
2017-02-15T01:29:12.566Z,1029.76
2017-02-15T01:30:25.304Z,1029.74
2017-02-15T01:31:37.634Z,1029.7
2017-02-15T01:32:50.792Z,1029.69
2017-02-15T01:34:03.881Z,1029.68
2017-02-15T01:35:16.958Z,1029.66
2017-02-15T01:36:29.640Z,1029.69
2017-02-15T01:37:42.773Z,1029.68
2017-02-15T01:38:55.884Z,1029.64
2017-02-15T01:40:09.023Z,1029.64
2017-02-15T01:41:21.752Z,1029.64
2017-02-15T01:42:34.891Z,1029.66
2017-02-15T01:43:47.969Z,1029.69
2017-02-15T01:45:01.314Z,1029.66
2017-02-15T01:46:14.421Z,1029.66
2017-02-15T01:47:27.536Z,1029.61
2017-02-15T01:48:40.637Z,1029.63
2017-02-15T01:49:53.745Z,1029.59
2017-02-15T01:51:06.484Z,1029.6
2017-02-15T01:52:19.632Z,1029.58
2017-02-15T01:53:32.764Z,1029.56
2017-02-15T01:54:45.910Z,1029.58
2017-02-15T01:55:59.002Z,1029.6
2017-02-15T01:57:11.750Z,1029.57
2017-02-15T01:58:24.837Z,1029.61
2017-02-15T01:59:37.888Z,1029.56
2017-02-15T02:00:51.026Z,1029.58
2017-02-15T02:02:04.172Z,1029.58
2017-02-15T02:03:17.270Z,1029.56
2017-02-15T02:04:30.367Z,1029.52
2017-02-15T02:05:43.444Z,1029.55
2017-02-15T02:06:56.533Z,1029.55
2017-02-15T02:08:09.628Z,1029.55
2017-02-15T02:09:22.706Z,1029.52
2017-02-15T02:10:35.781Z,1029.53
2017-02-15T02:11:49.152Z,1029.47
2017-02-15T02:13:02.264Z,1029.46
2017-02-15T02:14:15.334Z,1029.4
2017-02-15T02:15:28.043Z,1029.44
2017-02-15T02:16:41.155Z,1029.37
2017-02-15T02:17:54.277Z,1029.37
2017-02-15T02:19:06.991Z,1029.37
2017-02-15T02:20:20.118Z,1029.33
2017-02-15T02:21:32.806Z,1029.36
2017-02-15T02:22:45.559Z,1029.39
2017-02-15T02:23:58.623Z,1029.37
2017-02-15T02:25:11.720Z,1029.43
2017-02-15T02:26:24.817Z,1029.38
2017-02-15T02:27:37.493Z,1029.38
2017-02-15T02:28:50.608Z,1029.37
2017-02-15T02:30:03.745Z,1029.35
2017-02-15T02:31:16.499Z,1029.34
2017-02-15T02:32:29.223Z,1029.33
2017-02-15T02:33:42.296Z,1029.32
2017-02-15T02:34:55.414Z,1029.37
2017-02-15T02:36:08.138Z,1029.34
2017-02-15T02:37:20.860Z,1029.4
2017-02-15T02:38:33.179Z,1029.35
2017-02-15T02:39:46.289Z,1029.32
2017-02-15T02:40:58.989Z,1029.34
2017-02-15T02:42:12.086Z,1029.4
2017-02-15T02:43:24.792Z,1029.37
2017-02-15T02:44:37.911Z,1029.34
2017-02-15T02:45:51.074Z,1029.36
2017-02-15T02:47:04.198Z,1029.34
2017-02-15T02:48:17.290Z,1029.4
2017-02-15T02:49:30.393Z,1029.39
2017-02-15T02:50:43.508Z,1029.37
2017-02-15T02:51:56.611Z,1029.38
2017-02-15T02:53:09.717Z,1029.29
2017-02-15T02:54:22.421Z,1029.36
2017-02-15T02:55:35.489Z,1029.36
2017-02-15T02:56:48.590Z,1029.35
2017-02-15T02:58:01.684Z,1029.37
2017-02-15T02:59:14.796Z,1029.36
2017-02-15T03:00:27.874Z,1029.36
2017-02-15T03:01:40.947Z,1029.37
2017-02-15T03:02:54.043Z,1029.36
2017-02-15T03:04:07.113Z,1029.36
2017-02-15T03:05:20.257Z,1029.33
2017-02-15T03:06:33.352Z,1029.35
2017-02-15T03:07:46.087Z,1029.33
2017-02-15T03:08:59.149Z,1029.34
2017-02-15T03:10:12.290Z,1029.29
2017-02-15T03:11:25.437Z,1029.33
2017-02-15T03:12:38.558Z,1029.34
2017-02-15T03:13:51.639Z,1029.34
2017-02-15T03:15:04.782Z,1029.3
2017-02-15T03:16:17.914Z,1029.37
2017-02-15T03:17:31.048Z,1029.34
2017-02-15T03:18:44.136Z,1029.34
2017-02-15T03:19:57.220Z,1029.35
2017-02-15T03:21:09.929Z,1029.31
2017-02-15T03:22:23.232Z,1029.35
2017-02-15T03:23:35.552Z,1029.33
2017-02-15T03:24:48.266Z,1029.35
2017-02-15T03:26:01.373Z,1029.33
2017-02-15T03:27:14.484Z,1029.3
2017-02-15T03:28:27.579Z,1029.31
2017-02-15T03:29:40.626Z,1029.27
2017-02-15T03:30:53.677Z,1029.3
2017-02-15T03:32:06.736Z,1029.29
2017-02-15T03:33:19.472Z,1029.31
2017-02-15T03:34:32.240Z,1029.34
2017-02-15T03:35:45.330Z,1029.28
2017-02-15T03:36:58.382Z,1029.31
2017-02-15T03:38:11.483Z,1029.35
2017-02-15T03:39:24.574Z,1029.33
2017-02-15T03:40:37.681Z,1029.31
2017-02-15T03:41:50.791Z,1029.33
2017-02-15T03:43:03.887Z,1029.32
2017-02-15T03:44:16.652Z,1029.37
2017-02-15T03:45:29.346Z,1029.34
2017-02-15T03:46:42.517Z,1029.35
2017-02-15T03:47:55.596Z,1029.33
2017-02-15T03:49:08.740Z,1029.28
2017-02-15T03:50:21.438Z,1029.3
2017-02-15T03:51:34.526Z,1029.33
2017-02-15T03:52:47.248Z,1029.32
2017-02-15T03:54:00.347Z,1029.3
2017-02-15T03:55:12.667Z,1029.29
2017-02-15T03:56:25.417Z,1029.27
2017-02-15T03:57:38.550Z,1029.25
2017-02-15T03:58:51.608Z,1029.26
2017-02-15T04:00:04.650Z,1029.18
2017-02-15T04:01:17.362Z,1029.21
2017-02-15T04:02:30.499Z,1029.25
2017-02-15T04:03:43.618Z,1029.22
2017-02-15T04:04:56.762Z,1029.21
2017-02-15T04:06:09.104Z,1029.23
2017-02-15T04:07:22.223Z,1029.23
2017-02-15T04:08:35.326Z,1029.24
2017-02-15T04:09:48.047Z,1029.22
2017-02-15T04:11:01.144Z,1029.29
2017-02-15T04:12:14.244Z,1029.26
2017-02-15T04:13:27.366Z,1029.27
2017-02-15T04:14:40.106Z,1029.27
2017-02-15T04:15:53.474Z,1029.29
2017-02-15T04:17:06.542Z,1029.29
2017-02-15T04:18:19.643Z,1029.28
2017-02-15T04:19:32.308Z,1029.34
2017-02-15T04:20:45.379Z,1029.3
2017-02-15T04:21:58.474Z,1029.32
2017-02-15T04:23:11.574Z,1029.32
2017-02-15T04:24:24.666Z,1029.35
2017-02-15T04:25:37.761Z,1029.35
2017-02-15T04:26:50.934Z,1029.32
2017-02-15T04:28:03.639Z,1029.37
2017-02-15T04:29:16.360Z,1029.35
2017-02-15T04:30:29.109Z,1029.36
2017-02-15T04:31:41.809Z,1029.35
2017-02-15T04:32:54.541Z,1029.39
2017-02-15T04:34:07.583Z,1029.36
2017-02-15T04:35:20.290Z,1029.38
2017-02-15T04:36:33.368Z,1029.33
2017-02-15T04:37:46.489Z,1029.32
2017-02-15T04:38:59.618Z,1029.38
2017-02-15T04:40:12.344Z,1029.3
2017-02-15T04:41:25.441Z,1029.32
2017-02-15T04:42:38.559Z,1029.26
2017-02-15T04:43:51.656Z,1029.24
2017-02-15T04:45:04.752Z,1029.23
2017-02-15T04:46:17.459Z,1029.22
2017-02-15T04:47:30.538Z,1029.22
2017-02-15T04:48:43.641Z,1029.14
2017-02-15T04:49:56.780Z,1029.18
2017-02-15T04:51:09.893Z,1029.12
2017-02-15T04:52:22.578Z,1029.14
2017-02-15T04:53:35.686Z,1029.16
2017-02-15T04:54:48.764Z,1029.15
2017-02-15T04:56:01.902Z,1029.13
2017-02-15T04:57:15.016Z,1029.13
2017-02-15T04:58:27.757Z,1029.09
2017-02-15T04:59:41.079Z,1029.09
2017-02-15T05:00:54.225Z,1029.11
2017-02-15T05:02:07.315Z,1029.09
2017-02-15T05:03:20.408Z,1029.09
2017-02-15T05:04:33.507Z,1029.09
2017-02-15T05:05:46.602Z,1029.08
2017-02-15T05:06:59.704Z,1029.11
2017-02-15T05:08:12.842Z,1029.12
2017-02-15T05:09:25.587Z,1029.09
2017-02-15T05:10:38.710Z,1029.11
2017-02-15T05:11:51.806Z,1029.05
2017-02-15T05:13:04.878Z,1029.09
2017-02-15T05:14:17.548Z,1029.09
2017-02-15T05:15:30.263Z,1029.09
2017-02-15T05:16:43.346Z,1029.04
2017-02-15T05:17:56.460Z,1029.07
2017-02-15T05:19:09.193Z,1029.06
2017-02-15T05:20:22.270Z,1029.06
2017-02-15T05:21:34.605Z,1029.01
2017-02-15T05:22:47.718Z,1029.04
2017-02-15T05:24:00.852Z,1029.04
2017-02-15T05:25:13.964Z,1029.02
2017-02-15T05:26:26.707Z,1028.98
2017-02-15T05:27:39.820Z,1029.09
2017-02-15T05:28:52.881Z,1029.07
2017-02-15T05:30:05.644Z,1029.12
2017-02-15T05:31:18.691Z,1029.08
2017-02-15T05:32:31.793Z,1029.07
2017-02-15T05:33:44.531Z,1029.06
2017-02-15T05:34:57.626Z,1029.1
2017-02-15T05:36:10.742Z,1029.05
2017-02-15T05:37:24.077Z,1029.09
2017-02-15T05:38:37.208Z,1029.1
2017-02-15T05:39:49.944Z,1029.08
2017-02-15T05:41:03.052Z,1029.12
2017-02-15T05:42:15.753Z,1029.1
2017-02-15T05:43:28.842Z,1029.14
2017-02-15T05:44:41.895Z,1029.1
2017-02-15T05:45:55.009Z,1029.14
2017-02-15T05:47:07.711Z,1029.15
2017-02-15T05:48:20.390Z,1029.14
2017-02-15T05:49:33.461Z,1029.19
2017-02-15T05:50:46.575Z,1029.17
2017-02-15T05:51:59.676Z,1029.21
2017-02-15T05:53:12.747Z,1029.19
2017-02-15T05:54:25.469Z,1029.24
2017-02-15T05:55:38.126Z,1029.24
2017-02-15T05:56:50.878Z,1029.26
2017-02-15T05:58:03.606Z,1029.26
2017-02-15T05:59:16.578Z,1029.28
2017-02-15T06:00:29.697Z,1029.31
2017-02-15T06:01:42.393Z,1029.3
2017-02-15T06:02:55.508Z,1029.3
2017-02-15T06:04:08.203Z,1029.34
2017-02-15T06:05:20.968Z,1029.32
2017-02-15T06:06:34.097Z,1029.3
2017-02-15T06:07:47.188Z,1029.3
2017-02-15T06:09:00.264Z,1029.31
2017-02-15T06:10:13.368Z,1029.35
2017-02-15T06:11:26.482Z,1029.34
2017-02-15T06:12:39.192Z,1029.38
2017-02-15T06:13:51.878Z,1029.35
2017-02-15T06:15:04.974Z,1029.36
2017-02-15T06:16:18.094Z,1029.33
2017-02-15T06:17:30.784Z,1029.32
2017-02-15T06:18:43.829Z,1029.35
2017-02-15T06:19:56.937Z,1029.33
2017-02-15T06:21:09.333Z,1029.32
2017-02-15T06:22:22.443Z,1029.31
2017-02-15T06:23:35.511Z,1029.31
2017-02-15T06:24:48.632Z,1029.39
2017-02-15T06:26:01.731Z,1029.33
2017-02-15T06:27:15.069Z,1029.35
2017-02-15T06:28:28.155Z,1029.39
2017-02-15T06:29:41.235Z,1029.43
2017-02-15T06:30:53.914Z,1029.47
2017-02-15T06:32:06.993Z,1029.46
2017-02-15T06:33:20.104Z,1029.5
2017-02-15T06:34:33.251Z,1029.51
2017-02-15T06:35:45.978Z,1029.5
2017-02-15T06:36:59.093Z,1029.55
2017-02-15T06:38:12.140Z,1029.53
2017-02-15T06:39:25.178Z,1029.53
2017-02-15T06:40:38.312Z,1029.51
2017-02-15T06:41:51.450Z,1029.52
2017-02-15T06:43:04.547Z,1029.54
2017-02-15T06:44:17.634Z,1029.5
2017-02-15T06:45:30.714Z,1029.56
2017-02-15T06:46:43.833Z,1029.54
2017-02-15T06:47:56.913Z,1029.55
2017-02-15T06:49:10.009Z,1029.55
2017-02-15T06:50:22.722Z,1029.57
2017-02-15T06:51:35.789Z,1029.52
2017-02-15T06:52:48.895Z,1029.53
2017-02-15T06:54:02.011Z,1029.51
2017-02-15T06:55:14.706Z,1029.5
2017-02-15T06:56:27.802Z,1029.55
2017-02-15T06:57:40.900Z,1029.54
2017-02-15T06:58:53.999Z,1029.52
2017-02-15T07:00:07.073Z,1029.62
2017-02-15T07:01:20.210Z,1029.59
2017-02-15T07:02:33.337Z,1029.58
2017-02-15T07:03:46.460Z,1029.57
2017-02-15T07:04:59.555Z,1029.61
2017-02-15T07:06:12.247Z,1029.61
2017-02-15T07:07:24.940Z,1029.57
2017-02-15T07:08:37.639Z,1029.55
2017-02-15T07:09:50.731Z,1029.54
2017-02-15T07:11:03.453Z,1029.53
2017-02-15T07:12:16.523Z,1029.49
2017-02-15T07:13:29.651Z,1029.54
2017-02-15T07:14:42.763Z,1029.57
2017-02-15T07:15:55.462Z,1029.6
2017-02-15T07:17:08.563Z,1029.62
2017-02-15T07:18:21.710Z,1029.64
2017-02-15T07:19:34.774Z,1029.66
2017-02-15T07:20:48.105Z,1029.69
2017-02-15T07:22:01.228Z,1029.71
2017-02-15T07:23:13.569Z,1029.73
2017-02-15T07:24:26.660Z,1029.74
2017-02-15T07:25:39.003Z,1029.77
2017-02-15T07:26:52.091Z,1029.79
2017-02-15T07:28:05.203Z,1029.73
2017-02-15T07:29:18.317Z,1029.76
2017-02-15T07:30:31.414Z,1029.77
2017-02-15T07:31:44.539Z,1029.76
2017-02-15T07:32:57.285Z,1029.78
2017-02-15T07:34:10.430Z,1029.76
2017-02-15T07:35:23.543Z,1029.79
2017-02-15T07:36:36.622Z,1029.73
2017-02-15T07:37:49.710Z,1029.73
2017-02-15T07:39:02.374Z,1029.74
2017-02-15T07:40:15.060Z,1029.71
2017-02-15T07:41:28.447Z,1029.71
2017-02-15T07:42:41.583Z,1029.69
2017-02-15T07:43:54.679Z,1029.71
2017-02-15T07:45:07.738Z,1029.74
2017-02-15T07:46:20.825Z,1029.73
2017-02-15T07:47:33.927Z,1029.74
2017-02-15T07:48:47.017Z,1029.76
2017-02-15T07:50:00.100Z,1029.73
2017-02-15T07:51:13.170Z,1029.77
2017-02-15T07:52:26.293Z,1029.77
2017-02-15T07:53:39.414Z,1029.74
2017-02-15T07:54:52.560Z,1029.77
2017-02-15T07:56:05.697Z,1029.71
2017-02-15T07:57:18.775Z,1029.72
2017-02-15T07:58:31.867Z,1029.67
2017-02-15T07:59:44.954Z,1029.7
2017-02-15T08:00:58.063Z,1029.72
2017-02-15T08:02:10.797Z,1029.72
2017-02-15T08:03:23.751Z,1029.76
2017-02-15T08:04:36.826Z,1029.74
2017-02-15T08:05:49.914Z,1029.78
2017-02-15T08:07:02.998Z,1029.83
2017-02-15T08:08:15.736Z,1029.77
2017-02-15T08:09:28.835Z,1029.76
2017-02-15T08:10:41.918Z,1029.73
2017-02-15T08:11:55.007Z,1029.72
2017-02-15T08:13:08.126Z,1029.71
2017-02-15T08:14:21.236Z,1029.73
2017-02-15T08:15:34.341Z,1029.73
2017-02-15T08:16:47.049Z,1029.75
2017-02-15T08:18:00.125Z,1029.8
2017-02-15T08:19:13.195Z,1029.77
2017-02-15T08:20:26.249Z,1029.76
2017-02-15T08:21:39.344Z,1029.74
2017-02-15T08:22:52.502Z,1029.69
2017-02-15T08:24:05.237Z,1029.64
2017-02-15T08:25:18.348Z,1029.62
2017-02-15T08:26:31.496Z,1029.62
2017-02-15T08:27:44.224Z,1029.58
2017-02-15T08:28:57.313Z,1029.55
2017-02-15T08:30:10.409Z,1029.56
2017-02-15T08:31:23.535Z,1029.6
2017-02-15T08:32:36.281Z,1029.58
2017-02-15T08:33:49.478Z,1029.61
2017-02-15T08:35:02.577Z,1029.56
2017-02-15T08:36:14.920Z,1029.55
2017-02-15T08:37:28.019Z,1029.56
2017-02-15T08:38:41.130Z,1029.51
2017-02-15T08:39:54.207Z,1029.52
2017-02-15T08:41:07.346Z,1029.53
2017-02-15T08:42:20.466Z,1029.55
2017-02-15T08:43:33.630Z,1029.52
2017-02-15T08:44:46.315Z,1029.53
2017-02-15T08:45:59.053Z,1029.52
2017-02-15T08:47:12.149Z,1029.51
2017-02-15T08:48:24.489Z,1029.53
2017-02-15T08:49:37.560Z,1029.54
2017-02-15T08:50:50.663Z,1029.57
2017-02-15T08:52:03.789Z,1029.54
2017-02-15T08:53:16.930Z,1029.52
2017-02-15T08:54:29.642Z,1029.54
2017-02-15T08:55:42.738Z,1029.56
2017-02-15T08:56:55.467Z,1029.56
2017-02-15T08:58:08.161Z,1029.57
2017-02-15T08:59:20.911Z,1029.59
2017-02-15T09:00:34.005Z,1029.55
2017-02-15T09:01:47.125Z,1029.59
2017-02-15T09:03:00.228Z,1029.56
2017-02-15T09:04:12.959Z,1029.55
2017-02-15T09:05:26.039Z,1029.55
2017-02-15T09:06:39.141Z,1029.53
2017-02-15T09:07:52.246Z,1029.51
2017-02-15T09:09:05.329Z,1029.53
2017-02-15T09:10:18.050Z,1029.45
2017-02-15T09:11:31.183Z,1029.5
2017-02-15T09:12:44.319Z,1029.51
2017-02-15T09:13:57.391Z,1029.48
2017-02-15T09:15:10.498Z,1029.5
2017-02-15T09:16:23.258Z,1029.5
2017-02-15T09:17:36.388Z,1029.51
2017-02-15T09:18:49.485Z,1029.49
2017-02-15T09:20:02.569Z,1029.44
2017-02-15T09:21:15.709Z,1029.45
2017-02-15T09:22:28.781Z,1029.47
2017-02-15T09:23:41.906Z,1029.44
2017-02-15T09:24:55.046Z,1029.39
2017-02-15T09:26:07.749Z,1029.42
2017-02-15T09:27:20.447Z,1029.43
2017-02-15T09:28:33.515Z,1029.43
2017-02-15T09:29:46.192Z,1029.39
2017-02-15T09:30:59.331Z,1029.39
2017-02-15T09:32:12.403Z,1029.43
2017-02-15T09:33:25.135Z,1029.32
2017-02-15T09:34:38.239Z,1029.38
2017-02-15T09:35:51.391Z,1029.41
2017-02-15T09:37:04.514Z,1029.44
2017-02-15T09:38:17.657Z,1029.43
2017-02-15T09:39:30.772Z,1029.43
2017-02-15T09:40:43.897Z,1029.46
2017-02-15T09:41:57.061Z,1029.43
2017-02-15T09:43:10.185Z,1029.44
2017-02-15T09:44:22.892Z,1029.44
2017-02-15T09:45:35.982Z,1029.49
2017-02-15T09:46:48.754Z,1029.52
2017-02-15T09:48:01.861Z,1029.5
2017-02-15T09:49:14.596Z,1029.49
2017-02-15T09:50:27.294Z,1029.47
2017-02-15T09:51:40.430Z,1029.45
2017-02-15T09:52:53.511Z,1029.45
2017-02-15T09:54:06.633Z,1029.45
2017-02-15T09:55:19.393Z,1029.44
2017-02-15T09:56:32.513Z,1029.47
2017-02-15T09:57:45.885Z,1029.48
2017-02-15T09:58:58.582Z,1029.46
2017-02-15T10:00:11.333Z,1029.43
2017-02-15T10:01:24.449Z,1029.43
2017-02-15T10:02:37.176Z,1029.42
2017-02-15T10:03:50.304Z,1029.45
2017-02-15T10:05:02.995Z,1029.48
2017-02-15T10:06:16.079Z,1029.47
2017-02-15T10:07:29.224Z,1029.47
2017-02-15T10:08:42.351Z,1029.47
2017-02-15T10:09:55.474Z,1029.46
2017-02-15T10:11:08.164Z,1029.44
2017-02-15T10:12:21.260Z,1029.42
2017-02-15T10:13:34.336Z,1029.4
2017-02-15T10:14:47.457Z,1029.41
2017-02-15T10:16:00.547Z,1029.4
2017-02-15T10:17:13.702Z,1029.39
2017-02-15T10:18:26.811Z,1029.38
2017-02-15T10:19:39.563Z,1029.37
2017-02-15T10:20:52.631Z,1029.38
2017-02-15T10:22:05.749Z,1029.34
2017-02-15T10:23:18.496Z,1029.36
2017-02-15T10:24:31.625Z,1029.33
2017-02-15T10:25:44.739Z,1029.31
2017-02-15T10:26:57.835Z,1029.31
2017-02-15T10:28:10.908Z,1029.29
2017-02-15T10:29:23.634Z,1029.31
2017-02-15T10:30:36.741Z,1029.29
2017-02-15T10:31:49.893Z,1029.25
2017-02-15T10:33:02.646Z,1029.3
2017-02-15T10:34:15.362Z,1029.35
2017-02-15T10:35:28.530Z,1029.31
2017-02-15T10:36:41.610Z,1029.31
2017-02-15T10:37:54.715Z,1029.37
2017-02-15T10:39:07.418Z,1029.38
2017-02-15T10:40:20.541Z,1029.4
2017-02-15T10:41:33.619Z,1029.42
2017-02-15T10:42:46.756Z,1029.41
2017-02-15T10:43:59.860Z,1029.41
2017-02-15T10:45:12.602Z,1029.42
2017-02-15T10:46:25.718Z,1029.4
2017-02-15T10:47:38.058Z,1029.34
2017-02-15T10:48:51.167Z,1029.32
2017-02-15T10:50:04.250Z,1029.29
2017-02-15T10:51:17.009Z,1029.3
2017-02-15T10:52:29.755Z,1029.3
2017-02-15T10:53:42.512Z,1029.3
2017-02-15T10:54:55.627Z,1029.28
2017-02-15T10:56:08.368Z,1029.31
2017-02-15T10:57:21.107Z,1029.26
2017-02-15T10:58:33.829Z,1029.3
2017-02-15T10:59:46.922Z,1029.27
2017-02-15T11:01:00.063Z,1029.29
2017-02-15T11:02:13.200Z,1029.3
2017-02-15T11:03:25.961Z,1029.31
2017-02-15T11:04:37.915Z,1029.31
2017-02-15T11:05:51.088Z,1029.32
2017-02-15T11:07:04.219Z,1029.33
2017-02-15T11:08:17.325Z,1029.33
2017-02-15T11:09:30.429Z,1029.3
2017-02-15T11:10:43.544Z,1029.33
2017-02-15T11:11:56.718Z,1029.31
2017-02-15T11:13:09.412Z,1029.3
2017-02-15T11:14:22.534Z,1029.3
2017-02-15T11:15:35.655Z,1029.24
2017-02-15T11:16:48.375Z,1029.28
2017-02-15T11:18:01.515Z,1029.28
2017-02-15T11:19:14.652Z,1029.28
2017-02-15T11:20:27.798Z,1029.25
2017-02-15T11:21:40.943Z,1029.27
2017-02-15T11:22:54.078Z,1029.22
2017-02-15T11:24:07.225Z,1029.24
2017-02-15T11:25:19.974Z,1029.22
2017-02-15T11:26:33.110Z,1029.19
2017-02-15T11:27:46.184Z,1029.24
2017-02-15T11:28:58.910Z,1029.2
2017-02-15T11:30:11.973Z,1029.23
2017-02-15T11:31:24.750Z,1029.17
2017-02-15T11:32:37.890Z,1029.2
2017-02-15T11:33:50.961Z,1029.16
2017-02-15T11:35:03.323Z,1029.14
2017-02-15T11:36:16.476Z,1029.13
2017-02-15T11:37:29.628Z,1029.12
2017-02-15T11:38:42.718Z,1029.16
2017-02-15T11:39:55.439Z,1029.11
2017-02-15T11:41:07.760Z,1029.11
2017-02-15T11:42:20.840Z,1029.13
2017-02-15T11:43:33.976Z,1029.12
2017-02-15T11:44:47.105Z,1029.08
2017-02-15T11:46:00.243Z,1029.04
2017-02-15T11:47:12.590Z,1029
2017-02-15T11:48:25.309Z,1029.04
2017-02-15T11:49:38.407Z,1029.04
2017-02-15T11:50:51.532Z,1028.98
2017-02-15T11:52:04.681Z,1029.03
2017-02-15T11:53:17.006Z,1028.96
2017-02-15T11:54:30.159Z,1028.94
2017-02-15T11:55:43.318Z,1028.92
2017-02-15T11:56:56.407Z,1028.92
2017-02-15T11:58:09.485Z,1028.85
2017-02-15T11:59:21.826Z,1028.93
2017-02-15T12:00:34.602Z,1028.87
2017-02-15T12:01:47.391Z,1028.8
2017-02-15T12:03:00.492Z,1028.76
2017-02-15T12:04:13.633Z,1028.79
2017-02-15T12:05:26.336Z,1028.75
2017-02-15T12:06:39.080Z,1028.71
2017-02-15T12:07:52.221Z,1028.68
2017-02-15T12:09:04.940Z,1028.67
2017-02-15T12:10:17.702Z,1028.67
2017-02-15T12:11:30.813Z,1028.65
2017-02-15T12:12:43.914Z,1028.62
2017-02-15T12:13:57.025Z,1028.68
2017-02-15T12:15:10.151Z,1028.58
2017-02-15T12:16:22.873Z,1028.6
2017-02-15T12:17:35.999Z,1028.53
2017-02-15T12:18:49.143Z,1028.56
2017-02-15T12:20:02.279Z,1028.54
2017-02-15T12:21:15.392Z,1028.56
2017-02-15T12:22:28.539Z,1028.49
2017-02-15T12:23:41.690Z,1028.48
2017-02-15T12:24:54.826Z,1028.47
2017-02-15T12:26:07.913Z,1028.49
2017-02-15T12:27:20.637Z,1028.48
2017-02-15T12:28:33.691Z,1028.44
2017-02-15T12:29:46.831Z,1028.42
2017-02-15T12:30:59.950Z,1028.4
2017-02-15T12:32:12.737Z,1028.36
2017-02-15T12:33:25.460Z,1028.36
2017-02-15T12:34:38.587Z,1028.35
2017-02-15T12:35:51.708Z,1028.34
2017-02-15T12:37:04.857Z,1028.32
2017-02-15T12:38:17.599Z,1028.31
2017-02-15T12:39:30.762Z,1028.27
2017-02-15T12:40:43.882Z,1028.26
2017-02-15T12:41:56.983Z,1028.24
2017-02-15T12:43:10.087Z,1028.23
2017-02-15T12:44:22.822Z,1028.2
2017-02-15T12:45:35.968Z,1028.19
2017-02-15T12:46:49.063Z,1028.15
2017-02-15T12:48:02.181Z,1028.22
2017-02-15T12:49:15.261Z,1028.15
2017-02-15T12:50:28.384Z,1028.15
2017-02-15T12:51:41.502Z,1028.08
2017-02-15T12:52:54.642Z,1028.09
2017-02-15T12:54:07.347Z,1028.13
2017-02-15T12:55:20.483Z,1028.07
2017-02-15T12:56:33.606Z,1028.07
2017-02-15T12:57:46.719Z,1028.05
2017-02-15T12:58:59.833Z,1028.05
2017-02-15T13:00:12.535Z,1028.07
2017-02-15T13:01:25.687Z,1028.07
2017-02-15T13:02:38.787Z,1028.1
2017-02-15T13:03:51.890Z,1028.09
2017-02-15T13:05:05.021Z,1028.08
2017-02-15T13:06:18.132Z,1028.02
2017-02-15T13:07:31.300Z,1028.04
2017-02-15T13:08:44.424Z,1028.03
2017-02-15T13:09:57.542Z,1028
2017-02-15T13:11:10.263Z,1028.01
2017-02-15T13:12:22.975Z,1027.99
2017-02-15T13:13:36.154Z,1028
2017-02-15T13:14:49.324Z,1028
2017-02-15T13:16:02.426Z,1027.98
2017-02-15T13:17:15.516Z,1027.97
2017-02-15T13:18:28.211Z,1027.96
2017-02-15T13:19:41.276Z,1027.95
2017-02-15T13:20:54.372Z,1027.94
2017-02-15T13:22:07.453Z,1027.89
2017-02-15T13:23:19.821Z,1027.92
2017-02-15T13:24:32.571Z,1027.88
2017-02-15T13:25:45.333Z,1027.87
2017-02-15T13:26:58.425Z,1027.85
2017-02-15T13:28:11.173Z,1027.79
2017-02-15T13:29:24.307Z,1027.78
2017-02-15T13:30:37.040Z,1027.79
2017-02-15T13:31:49.763Z,1027.74
2017-02-15T13:33:02.859Z,1027.74
2017-02-15T13:34:15.577Z,1027.72
2017-02-15T13:35:28.754Z,1027.76
2017-02-15T13:36:41.845Z,1027.74
2017-02-15T13:37:54.988Z,1027.73
2017-02-15T13:39:07.736Z,1027.74
2017-02-15T13:40:20.881Z,1027.76
2017-02-15T13:41:34.284Z,1027.72
2017-02-15T13:42:47.441Z,1027.72
2017-02-15T13:44:00.545Z,1027.71
2017-02-15T13:45:13.222Z,1027.76
2017-02-15T13:46:26.343Z,1027.81
2017-02-15T13:47:39.434Z,1027.79
2017-02-15T13:48:52.538Z,1027.82
2017-02-15T13:50:05.678Z,1027.83
2017-02-15T13:51:18.395Z,1027.8
2017-02-15T13:52:31.572Z,1027.8
2017-02-15T13:53:44.662Z,1027.81
2017-02-15T13:54:57.770Z,1027.82
2017-02-15T13:56:10.491Z,1027.79
2017-02-15T13:57:23.224Z,1027.82
2017-02-15T13:58:36.352Z,1027.8
2017-02-15T13:59:49.510Z,1027.79
2017-02-15T14:01:02.680Z,1027.77
2017-02-15T14:02:15.460Z,1027.76
2017-02-15T14:03:27.834Z,1027.75
2017-02-15T14:04:40.982Z,1027.77
2017-02-15T14:05:54.095Z,1027.74
2017-02-15T14:07:07.273Z,1027.75
2017-02-15T14:08:19.620Z,1027.71
2017-02-15T14:09:32.815Z,1027.73
2017-02-15T14:10:45.927Z,1027.67
2017-02-15T14:11:59.052Z,1027.73
2017-02-15T14:13:12.194Z,1027.75
2017-02-15T14:14:24.891Z,1027.72
2017-02-15T14:15:37.249Z,1027.71
2017-02-15T14:16:50.403Z,1027.73
2017-02-15T14:18:03.505Z,1027.7
2017-02-15T14:19:16.653Z,1027.66
2017-02-15T14:20:29.629Z,1027.7
2017-02-15T14:21:42.786Z,1027.69
2017-02-15T14:22:55.548Z,1027.65
2017-02-15T14:24:08.266Z,1027.67
2017-02-15T14:25:21.415Z,1027.65
2017-02-15T14:26:34.532Z,1027.62
2017-02-15T14:27:47.698Z,1027.62
2017-02-15T14:29:00.835Z,1027.63
2017-02-15T14:30:13.187Z,1027.63
2017-02-15T14:31:25.989Z,1027.62
2017-02-15T14:32:39.068Z,1027.62
2017-02-15T14:33:52.199Z,1027.63
2017-02-15T14:35:05.323Z,1027.63
2017-02-15T14:36:18.059Z,1027.6
2017-02-15T14:37:30.806Z,1027.62
2017-02-15T14:38:43.593Z,1027.59
2017-02-15T14:39:56.654Z,1027.59
2017-02-15T14:41:09.819Z,1027.57
2017-02-15T14:42:22.585Z,1027.54
2017-02-15T14:43:35.709Z,1027.53
2017-02-15T14:44:48.381Z,1027.51
2017-02-15T14:46:01.135Z,1027.51